createdAt,value
2018-08-06T00:01:40.420Z,101228.77
2018-08-06T00:04:10.655Z,101224.19
2018-08-06T00:06:40.683Z,101230.04
2018-08-06T00:09:10.402Z,101229.92
2018-08-06T00:11:40.388Z,101228.75
2018-08-06T00:14:10.448Z,101224.64
2018-08-06T00:16:40.537Z,101231.03
2018-08-06T00:19:10.596Z,101229.56
2018-08-06T00:21:40.817Z,101226.56
2018-08-06T00:24:11.558Z,101223.91
2018-08-06T00:26:41.516Z,101224.30
2018-08-06T00:29:11.164Z,101219.70
2018-08-06T00:31:41.945Z,101223.77
2018-08-06T00:34:11.726Z,101220.87
2018-08-06T00:36:42.377Z,101214.87
2018-08-06T00:39:12.679Z,101214.22
2018-08-06T00:41:42.223Z,101211.95
2018-08-06T00:44:12.045Z,101217.27
2018-08-06T00:46:41.857Z,101206.78
2018-08-06T00:49:11.689Z,101201.09
2018-08-06T00:51:41.346Z,101201.81
2018-08-06T00:54:11.476Z,101204.36
2018-08-06T00:56:41.235Z,101208.70
2018-08-06T00:59:11.037Z,101201.80
2018-08-06T01:01:41.558Z,101195.91
2018-08-06T01:04:11.265Z,101193.73
2018-08-06T01:06:41.368Z,101185.30
2018-08-06T01:09:11.076Z,101185.30
2018-08-06T01:11:41.491Z,101177.91
2018-08-06T01:14:11.877Z,101177.56
2018-08-06T01:16:41.461Z,101175.02
2018-08-06T01:19:11.259Z,101173.92
2018-08-06T01:21:41.194Z,101174.19
2018-08-06T01:24:11.200Z,101171.28
2018-08-06T01:26:41.353Z,101171.70
2018-08-06T01:29:11.149Z,101173.52
2018-08-06T01:31:41.261Z,101165.92
2018-08-06T01:34:11.376Z,101167.53
2018-08-06T01:36:41.393Z,101158.25
2018-08-06T01:39:12.728Z,101163.80
2018-08-06T01:41:42.233Z,101159.64
2018-08-06T01:44:11.766Z,101161.17
2018-08-06T01:46:41.326Z,101161.78
2018-08-06T01:49:11.689Z,101154.55
2018-08-06T01:51:41.508Z,101148.52
2018-08-06T01:54:11.637Z,101153.59
2018-08-06T01:56:41.617Z,101148.30
2018-08-06T01:59:11.714Z,101151.34
2018-08-06T02:01:41.919Z,101138.55
2018-08-06T02:04:11.547Z,101136.23
2018-08-06T02:06:41.369Z,101136.75
2018-08-06T02:09:11.180Z,101138.90
2018-08-06T02:11:41.908Z,101136.28
2018-08-06T02:14:11.794Z,101137.03
2018-08-06T02:16:41.557Z,101131.20
2018-08-06T02:19:11.310Z,101137.83
2018-08-06T02:21:41.452Z,101130.78
2018-08-06T02:24:11.733Z,101121.44
2018-08-06T02:26:41.431Z,101121.30
2018-08-06T02:29:11.376Z,101123.73
2018-08-06T02:31:41.625Z,101119.39
2018-08-06T02:34:11.712Z,101115.42
2018-08-06T02:36:41.632Z,101119.50
2018-08-06T02:39:12.292Z,101121.86
2018-08-06T02:41:42.115Z,101123.77
2018-08-06T02:44:11.774Z,101115.14
2018-08-06T02:46:41.419Z,101115.23
2018-08-06T02:49:11.600Z,101115.89
2018-08-06T02:51:42.031Z,101119.45
2018-08-06T02:54:11.902Z,101120.02
2018-08-06T02:56:43.329Z,101112.77
2018-08-06T02:59:13.210Z,101111.23
2018-08-06T03:01:43.056Z,101109.14
2018-08-06T03:04:13.151Z,101102.53
2018-08-06T03:06:42.748Z,101097.45
2018-08-06T03:09:13.287Z,101099.35
2018-08-06T03:11:43.005Z,101101.97
2018-08-06T03:14:12.902Z,101097.44
2018-08-06T03:16:42.673Z,101102.24
2018-08-06T03:19:12.502Z,101096.45
2018-08-06T03:21:42.445Z,101103.98
2018-08-06T03:24:12.731Z,101099.95
2018-08-06T03:26:42.853Z,101096.74
2018-08-06T03:29:12.539Z,101091.98
2018-08-06T03:31:42.412Z,101098.50
2018-08-06T03:34:12.706Z,101094.53
2018-08-06T03:36:42.613Z,101093.55
2018-08-06T03:39:12.226Z,101087.19
2018-08-06T03:41:41.752Z,101086.62
2018-08-06T03:44:11.783Z,101088.98
2018-08-06T03:46:41.943Z,101086.21
2018-08-06T03:49:11.795Z,101079.85
2018-08-06T03:51:41.852Z,101087.19
2018-08-06T03:54:11.734Z,101085.61
2018-08-06T03:56:41.752Z,101087.16
2018-08-06T03:59:11.274Z,101084.26
2018-08-06T04:01:41.770Z,101084.16
2018-08-06T04:04:11.333Z,101084.52
2018-08-06T04:06:41.486Z,101081.77
2018-08-06T04:09:11.032Z,101082.68
2018-08-06T04:11:40.704Z,101078.68
2018-08-06T04:14:10.557Z,101081.20
2018-08-06T04:16:42.277Z,101073.48
2018-08-06T04:19:13.047Z,101076.55
2018-08-06T04:21:47.815Z,101070.74
2018-08-06T04:24:17.847Z,101077.75
2018-08-06T04:26:47.693Z,101083.33
2018-08-06T04:29:17.375Z,101075.73
2018-08-06T04:31:46.865Z,101077.05
2018-08-06T04:34:16.332Z,101063.33
2018-08-06T04:36:45.993Z,101072.76
2018-08-06T04:39:15.594Z,101077.84
2018-08-06T04:41:45.316Z,101080.08
2018-08-06T04:44:14.867Z,101082.02
2018-08-06T04:46:44.397Z,101076.47
2018-08-06T04:49:14.233Z,101074.67
2018-08-06T04:51:44.221Z,101073.56
2018-08-06T04:54:14.180Z,101067.25
2018-08-06T04:56:44.557Z,101063.80
2018-08-06T04:59:14.162Z,101060.16
2018-08-06T05:01:44.390Z,101064.08
2018-08-06T05:04:14.095Z,101060.05
2018-08-06T05:06:43.976Z,101056.12
2018-08-06T05:09:23.366Z,101056.19
2018-08-06T05:11:53.225Z,101055.61
2018-08-06T05:14:22.989Z,101051.67
2018-08-06T05:16:52.781Z,101052.89
2018-08-06T05:19:22.385Z,101051.25
2018-08-06T05:21:52.323Z,101052.47
2018-08-06T05:24:22.378Z,101055.37
2018-08-06T05:26:52.205Z,101054.77
2018-08-06T05:29:22.515Z,101058.28
2018-08-06T05:31:52.086Z,101057.68
2018-08-06T05:34:22.300Z,101055.28
2018-08-06T05:36:52.272Z,101056.38
2018-08-06T05:39:23.210Z,101055.00
2018-08-06T05:41:53.007Z,101052.70
2018-08-06T05:44:23.263Z,101045.38
2018-08-06T05:46:52.878Z,101042.02
2018-08-06T05:49:23.161Z,101042.28
2018-08-06T05:51:52.950Z,101042.14
2018-08-06T05:54:23.456Z,101045.28
2018-08-06T05:56:53.191Z,101052.42
2018-08-06T05:59:22.988Z,101048.20
2018-08-06T06:01:52.988Z,101044.47
2018-08-06T06:04:22.567Z,101045.56
2018-08-06T06:06:52.232Z,101051.01
2018-08-06T06:09:22.396Z,101042.56
2018-08-06T06:11:52.419Z,101044.25
2018-08-06T06:14:22.747Z,101049.67
2018-08-06T06:16:52.265Z,101049.61
2018-08-06T06:19:22.482Z,101044.16
2018-08-06T06:21:52.224Z,101041.34
2018-08-06T06:24:22.813Z,101043.81
2018-08-06T06:26:52.682Z,101043.67
2018-08-06T06:29:22.412Z,101035.10
2018-08-06T06:31:52.399Z,101032.92
2018-08-06T06:34:22.746Z,101027.77
2018-08-06T06:36:52.703Z,101024.72
2018-08-06T06:39:23.232Z,101025.70
2018-08-06T06:41:53.018Z,101024.70
2018-08-06T06:44:22.579Z,101024.83
2018-08-06T06:46:52.279Z,101027.42
2018-08-06T06:49:22.552Z,101031.72
2018-08-06T06:51:52.435Z,101024.89
2018-08-06T06:54:22.933Z,101027.45
2018-08-06T06:56:52.568Z,101027.79
2018-08-06T06:59:22.360Z,101024.80
2018-08-06T07:01:52.104Z,101015.92
2018-08-06T07:04:22.911Z,101021.92
2018-08-06T07:06:52.601Z,101014.23
2018-08-06T07:09:22.611Z,101020.34
2018-08-06T07:11:52.595Z,101013.27
2018-08-06T07:14:22.641Z,101008.95
2018-08-06T07:16:53.082Z,101014.12
2018-08-06T07:19:23.016Z,101001.88
2018-08-06T07:21:53.026Z,101010.89
2018-08-06T07:24:22.913Z,101009.68
2018-08-06T07:26:53.050Z,101008.88
2018-08-06T07:29:22.618Z,101008.19
2018-08-06T07:31:52.901Z,101002.47
2018-08-06T07:34:22.566Z,100994.05
2018-08-06T07:36:52.616Z,100993.20
2018-08-06T07:39:23.227Z,100996.13
2018-08-06T07:41:53.199Z,100985.00
2018-08-06T07:44:22.693Z,100986.13
2018-08-06T07:46:52.340Z,100987.84
2018-08-06T07:49:22.933Z,100980.19
2018-08-06T07:51:52.657Z,100983.61
2018-08-06T07:54:23.126Z,100978.76
2018-08-06T07:56:52.930Z,100969.97
2018-08-06T07:59:23.063Z,100970.98
2018-08-06T08:01:53.116Z,100973.95
2018-08-06T08:04:23.166Z,100962.38
2018-08-06T08:06:52.955Z,100958.13
2018-08-06T08:09:22.914Z,100957.48
2018-08-06T08:11:52.979Z,100952.34
2018-08-06T08:14:23.337Z,100950.45
2018-08-06T08:16:53.457Z,100952.22
2018-08-06T08:19:23.461Z,100947.02
2018-08-06T08:21:54.112Z,100945.56
2018-08-06T08:24:23.585Z,100942.97
2018-08-06T08:26:53.477Z,100942.59
2018-08-06T08:29:23.591Z,100940.00
2018-08-06T08:31:53.498Z,100926.39
2018-08-06T08:34:23.308Z,100926.59
2018-08-06T08:36:53.788Z,100920.64
2018-08-06T08:39:24.345Z,100921.27
2018-08-06T08:41:54.496Z,100921.36
2018-08-06T08:44:24.319Z,100910.91
2018-08-06T08:46:54.528Z,100911.86
2018-08-06T08:49:24.335Z,100902.72
2018-08-06T08:51:54.096Z,100912.28
2018-08-06T08:54:24.089Z,100903.05
2018-08-06T08:56:54.617Z,100896.70
2018-08-06T08:59:25.021Z,100906.77
2018-08-06T09:01:54.700Z,100900.67
2018-08-06T09:04:24.494Z,100889.93
2018-08-06T09:06:54.914Z,100890.30
2018-08-06T09:09:24.820Z,100888.20
2018-08-06T09:11:54.714Z,100880.43
2018-08-06T09:14:25.142Z,100884.94
2018-08-06T09:16:55.241Z,100880.36
2018-08-06T09:19:25.601Z,100883.58
2018-08-06T09:21:55.843Z,100877.23
2018-08-06T09:24:25.618Z,100876.05
2018-08-06T09:26:56.160Z,100869.22
2018-08-06T09:29:26.087Z,100861.38
2018-08-06T09:31:56.155Z,100865.50
2018-08-06T09:34:25.962Z,100865.08
2018-08-06T09:36:56.276Z,100860.21
2018-08-06T09:39:26.418Z,100863.24
2018-08-06T09:41:56.256Z,100861.52
2018-08-06T09:44:26.824Z,100857.28
2018-08-06T09:46:56.680Z,100845.84
2018-08-06T09:49:26.823Z,100845.22
2018-08-06T09:51:57.336Z,100853.17
2018-08-06T09:54:27.740Z,100840.15
2018-08-06T09:56:57.919Z,100835.56
2018-08-06T09:59:28.501Z,100833.73
2018-08-06T10:01:59.267Z,100821.87
2018-08-06T10:04:29.170Z,100819.80
2018-08-06T10:06:58.976Z,100810.42
2018-08-06T10:09:29.127Z,100811.05
2018-08-06T10:11:58.825Z,100802.42
2018-08-06T10:14:29.053Z,100798.17
2018-08-06T10:16:58.995Z,100800.00
2018-08-06T10:19:28.761Z,100787.84
2018-08-06T10:21:58.782Z,100795.19
2018-08-06T10:24:28.697Z,100790.28
2018-08-06T10:26:58.522Z,100784.25
2018-08-06T10:29:28.408Z,100776.66
2018-08-06T10:31:58.064Z,100770.37
2018-08-06T10:34:27.561Z,100770.48
2018-08-06T10:36:57.273Z,100761.97
2018-08-06T10:39:27.383Z,100763.34
2018-08-06T10:41:57.047Z,100758.16
2018-08-06T10:44:27.380Z,100761.55
2018-08-06T10:46:57.222Z,100765.73
2018-08-06T10:49:31.234Z,100755.75
2018-08-06T10:52:01.379Z,100736.88
2018-08-06T10:54:31.129Z,100740.65
2018-08-06T10:57:01.577Z,100742.53
2018-08-06T10:59:31.202Z,100735.95
2018-08-06T11:02:01.164Z,100733.96
2018-08-06T11:04:31.118Z,100722.64
2018-08-06T11:07:01.643Z,100723.21
2018-08-06T11:09:32.195Z,100725.43
2018-08-06T11:12:02.481Z,100712.48
2018-08-06T11:14:32.129Z,100712.47
2018-08-06T11:17:02.186Z,100709.74
2018-08-06T11:19:32.156Z,100707.05
2018-08-06T11:22:02.424Z,100697.80
2018-08-06T11:24:32.080Z,100704.57
2018-08-06T11:27:01.616Z,100697.84
2018-08-06T11:29:31.264Z,100687.91
2018-08-06T11:32:01.646Z,100695.88
2018-08-06T11:34:31.614Z,100686.00
2018-08-06T11:37:02.133Z,100685.39
2018-08-06T11:39:32.146Z,100677.08
2018-08-06T11:42:01.875Z,100678.63
2018-08-06T11:44:31.640Z,100674.97
2018-08-06T11:47:01.407Z,100667.25
2018-08-06T11:49:31.368Z,100670.72
2018-08-06T11:52:01.394Z,100665.97
2018-08-06T11:54:31.684Z,100660.75
2018-08-06T11:57:02.008Z,100663.52
2018-08-06T11:59:32.152Z,100659.21
2018-08-06T12:02:02.293Z,100651.86
2018-08-06T12:04:32.648Z,100650.63
2018-08-06T12:07:07.012Z,100646.58
2018-08-06T12:09:36.965Z,100644.55
2018-08-06T12:12:06.935Z,100646.59
2018-08-06T12:14:36.763Z,100642.93
2018-08-06T12:17:06.906Z,100647.02
2018-08-06T12:19:37.053Z,100633.33
2018-08-06T12:22:06.929Z,100638.06
2018-08-06T12:24:37.429Z,100634.42
2018-08-06T12:27:07.734Z,100631.41
2018-08-06T12:29:39.896Z,100628.92
2018-08-06T12:32:10.161Z,100627.46
2018-08-06T12:34:40.090Z,100633.72
2018-08-06T12:37:09.921Z,100621.58
2018-08-06T12:39:39.726Z,100622.98
2018-08-06T12:42:09.468Z,100626.26
2018-08-06T12:44:39.834Z,100626.83
2018-08-06T12:47:09.666Z,100621.89
2018-08-06T12:49:39.887Z,100615.27
2018-08-06T12:52:10.176Z,100622.02
2018-08-06T12:54:40.117Z,100618.16
2018-08-06T12:57:10.621Z,100617.80
2018-08-06T12:59:40.991Z,100614.52
2018-08-06T13:02:10.825Z,100612.15
2018-08-06T13:04:41.368Z,100614.52
2018-08-06T13:07:11.465Z,100604.91
2018-08-06T13:09:41.470Z,100600.00
2018-08-06T13:12:11.615Z,100602.83
2018-08-06T13:14:41.685Z,100598.00
2018-08-06T13:17:11.709Z,100596.66
2018-08-06T13:19:41.675Z,100586.13
2018-08-06T13:22:11.912Z,100579.72
2018-08-06T13:24:41.829Z,100584.50
2018-08-06T13:27:12.133Z,100576.92
2018-08-06T13:29:42.596Z,100574.45
2018-08-06T13:32:12.165Z,100569.83
2018-08-06T13:34:42.135Z,100560.58
2018-08-06T13:37:12.046Z,100566.76
2018-08-06T13:39:42.134Z,100562.20
2018-08-06T13:42:12.128Z,100554.28
2018-08-06T13:44:42.218Z,100546.98
2018-08-06T13:47:12.356Z,100550.77
2018-08-06T13:49:42.720Z,100552.47
2018-08-06T13:52:12.352Z,100546.51
2018-08-06T13:54:42.334Z,100534.75
2018-08-06T13:57:12.023Z,100535.59
2018-08-06T13:59:42.376Z,100534.10
2018-08-06T14:02:12.302Z,100541.58
2018-08-06T14:04:41.854Z,100532.05
2018-08-06T14:07:11.772Z,100525.81
2018-08-06T14:09:41.847Z,100520.94
2018-08-06T14:12:11.768Z,100520.18
2018-08-06T14:14:41.822Z,100521.33
2018-08-06T14:17:11.653Z,100522.31
2018-08-06T14:19:41.922Z,100509.80
2018-08-06T14:22:12.718Z,100518.84
2018-08-06T14:24:42.395Z,100508.72
2018-08-06T14:27:12.074Z,100519.58
2018-08-06T14:29:41.983Z,100513.77
2018-08-06T14:32:12.144Z,100510.25
2018-08-06T14:34:42.050Z,100503.30
2018-08-06T14:37:12.993Z,100505.80
2018-08-06T14:39:42.950Z,100502.56
2018-08-06T14:42:12.762Z,100493.28
2018-08-06T14:44:42.564Z,100497.28
2018-08-06T14:47:12.504Z,100498.05
2018-08-06T14:49:42.195Z,100490.98
2018-08-06T14:52:12.274Z,100488.24
2018-08-06T14:54:42.470Z,100482.36
2018-08-06T14:57:12.377Z,100476.03
2018-08-06T14:59:42.060Z,100480.78
2018-08-06T15:02:11.955Z,100473.16
2018-08-06T15:04:41.881Z,100476.58
2018-08-06T15:07:12.338Z,100475.30
2018-08-06T15:09:42.377Z,100478.91
2018-08-06T15:12:12.881Z,100479.75
2018-08-06T15:14:43.265Z,100471.37
2018-08-06T15:17:13.102Z,100471.09
2018-08-06T15:19:43.145Z,100463.23
2018-08-06T15:22:13.446Z,100462.05
2018-08-06T15:24:47.721Z,100457.84
2018-08-06T15:27:17.301Z,100460.17
2018-08-06T15:29:46.897Z,100459.41
2018-08-06T15:32:16.563Z,100453.08
2018-08-06T15:34:46.725Z,100450.09
2018-08-06T15:37:16.607Z,100448.42
2018-08-06T15:39:46.964Z,100448.48
2018-08-06T15:42:16.825Z,100441.19
2018-08-06T15:44:47.202Z,100440.19
2018-08-06T15:47:22.630Z,100438.23
2018-08-06T15:49:52.202Z,100440.80
2018-08-06T15:52:22.222Z,100432.22
2018-08-06T15:54:52.135Z,100434.93
2018-08-06T15:57:22.024Z,100429.01
2018-08-06T15:59:52.128Z,100427.44
2018-08-06T16:07:25.293Z,100415.25
2018-08-06T16:09:56.206Z,100410.22
2018-08-06T16:12:26.133Z,100404.34
2018-08-06T16:14:55.819Z,100407.33
2018-08-06T16:17:25.672Z,100411.12
2018-08-06T16:19:55.628Z,100407.56
2018-08-06T16:22:25.386Z,100407.88
2018-08-06T16:24:55.965Z,100407.05
2018-08-06T16:27:25.908Z,100400.66
2018-08-06T16:29:55.595Z,100401.17
2018-08-06T16:32:25.678Z,100400.86
2018-08-06T16:34:55.705Z,100401.86
2018-08-06T16:37:25.932Z,100399.29
2018-08-06T16:39:55.716Z,100397.94
2018-08-06T16:42:25.633Z,100396.51
2018-08-06T16:44:55.290Z,100394.49
2018-08-06T16:47:25.459Z,100393.66
2018-08-06T16:49:55.295Z,100391.83
2018-08-06T16:52:25.045Z,100383.70
2018-08-06T16:54:55.107Z,100387.16
2018-08-06T16:57:25.040Z,100373.78
2018-08-06T16:59:56.222Z,100380.84
2018-08-06T17:02:26.134Z,100381.44
2018-08-06T17:04:55.917Z,100372.80
2018-08-06T17:07:26.104Z,100370.20
2018-08-06T17:09:55.831Z,100375.71
2018-08-06T17:12:25.777Z,100371.33
2018-08-06T17:14:56.647Z,100376.14
2018-08-06T17:17:26.574Z,100373.67
2018-08-06T17:19:56.318Z,100372.25
2018-08-06T17:22:26.047Z,100364.58
2018-08-06T17:24:56.235Z,100370.48
2018-08-06T17:27:25.980Z,100377.26
2018-08-06T17:29:56.386Z,100375.59
2018-08-06T17:32:26.458Z,100376.75
2018-08-06T17:34:56.149Z,100372.17
2018-08-06T17:37:25.965Z,100375.05
2018-08-06T17:39:56.120Z,100373.91
2018-08-06T17:42:26.382Z,100376.63
2018-08-06T17:44:56.314Z,100374.20
2018-08-06T17:47:26.664Z,100376.29
2018-08-06T17:49:57.031Z,100370.49
2018-08-06T17:52:26.884Z,100371.89
2018-08-06T17:54:56.499Z,100377.03
2018-08-06T17:57:26.983Z,100373.33
2018-08-06T17:59:57.144Z,100372.52
2018-08-06T18:02:27.292Z,100366.64
2018-08-06T18:04:57.347Z,100358.92
2018-08-06T18:07:27.242Z,100366.53
2018-08-06T18:09:56.879Z,100365.09
2018-08-06T18:12:27.070Z,100360.41
2018-08-06T18:14:56.881Z,100362.72
2018-08-06T18:17:26.784Z,100365.03
2018-08-06T18:19:56.490Z,100368.80
2018-08-06T18:22:26.619Z,100362.77
2018-08-06T18:24:56.373Z,100364.39
2018-08-06T18:27:26.288Z,100366.65
2018-08-06T18:29:56.774Z,100368.35
2018-08-06T18:32:26.952Z,100371.49
2018-08-06T18:34:57.122Z,100375.12
2018-08-06T18:37:27.016Z,100379.30
2018-08-06T18:39:56.719Z,100376.33
2018-08-06T18:42:27.202Z,100378.95
2018-08-06T18:44:58.279Z,100372.05
2018-08-06T18:47:30.297Z,100379.36
2018-08-06T18:50:00.403Z,100379.47
2018-08-06T18:52:34.129Z,100379.30
2018-08-06T18:55:08.936Z,100389.84
2018-08-06T18:57:43.039Z,100385.72
2018-08-06T19:00:18.884Z,100388.20
2018-08-06T19:02:49.207Z,100386.04
2018-08-06T19:05:19.430Z,100389.08
2018-08-06T19:07:53.697Z,100386.19
2018-08-06T19:10:27.212Z,100388.61
2018-08-06T19:13:04.536Z,100383.16
2018-08-06T19:15:38.064Z,100382.63
2018-08-06T19:18:16.745Z,100388.06
2018-08-06T19:20:49.471Z,100384.97
2018-08-06T19:23:23.802Z,100392.13
2018-08-06T19:25:56.714Z,100394.72
2018-08-06T19:28:30.093Z,100389.44
2018-08-06T19:31:05.308Z,100398.02
2018-08-06T19:33:35.251Z,100399.98
2018-08-06T19:36:05.821Z,100398.52
2018-08-06T19:38:39.699Z,100401.20
2018-08-06T19:41:10.483Z,100402.23
2018-08-06T19:43:44.269Z,100405.03
2018-08-06T19:46:15.987Z,100401.80
2018-08-06T19:48:49.748Z,100404.59
2018-08-06T19:51:22.008Z,100407.04
2018-08-06T19:53:54.047Z,100404.52
2018-08-06T19:56:25.206Z,100408.33
2018-08-06T19:58:55.127Z,100409.38
2018-08-06T20:01:25.320Z,100407.45
2018-08-06T20:03:55.434Z,100405.49
2018-08-06T20:06:29.272Z,100410.20
2018-08-06T20:09:02.541Z,100407.15
2018-08-06T20:11:36.575Z,100410.23
2018-08-06T20:14:10.787Z,100411.67
2018-08-06T20:16:44.087Z,100411.13
2018-08-06T20:19:17.202Z,100412.73
2018-08-06T20:21:50.168Z,100414.19
2018-08-06T20:24:24.601Z,100404.47
2018-08-06T20:26:58.316Z,100414.73
2018-08-06T20:29:30.078Z,100414.86
2018-08-06T20:32:02.799Z,100416.11
2018-08-06T20:34:37.681Z,100412.29
2018-08-06T20:37:10.577Z,100417.16
2018-08-06T20:39:40.780Z,100416.19
2018-08-06T20:42:10.823Z,100412.70
2018-08-06T20:44:43.826Z,100416.68
2018-08-06T20:47:17.837Z,100418.57
2018-08-06T20:49:51.072Z,100419.74
2018-08-06T20:52:21.784Z,100416.22
2018-08-06T20:54:51.541Z,100415.48
2018-08-06T20:57:25.472Z,100421.38
2018-08-06T20:59:58.446Z,100422.38
2018-08-06T21:02:32.058Z,100422.89
2018-08-06T21:05:05.788Z,100434.05
2018-08-06T21:07:35.706Z,100429.81
2018-08-06T21:10:09.205Z,100430.09
2018-08-06T21:12:39.679Z,100434.40
2018-08-06T21:15:10.554Z,100434.27
2018-08-06T21:17:40.912Z,100435.88
2018-08-06T21:20:15.734Z,100428.09
2018-08-06T21:22:48.507Z,100431.30
2018-08-06T21:25:21.752Z,100429.41
2018-08-06T21:27:55.632Z,100428.69
2018-08-06T21:30:29.507Z,100421.82
2018-08-06T21:33:02.585Z,100429.27
2018-08-06T21:35:36.258Z,100424.34
2018-08-06T21:38:09.533Z,100427.50
2018-08-06T21:40:39.444Z,100420.45
2018-08-06T21:43:13.723Z,100425.32
2018-08-06T21:45:47.615Z,100416.61
2018-08-06T21:48:20.218Z,100415.58
2018-08-06T21:50:53.099Z,100414.45
2018-08-06T21:53:26.006Z,100412.68
2018-08-06T21:56:00.153Z,100407.41
2018-08-06T21:58:33.805Z,100410.03
2018-08-06T22:01:07.895Z,100413.95
2018-08-06T22:03:40.078Z,100405.70
2018-08-06T22:06:13.985Z,100405.02
2018-08-06T22:08:44.019Z,100413.67
2018-08-06T22:11:17.394Z,100409.10
2018-08-06T22:13:47.598Z,100413.97
2018-08-06T22:16:17.245Z,100416.14
2018-08-06T22:18:47.462Z,100419.86
2018-08-06T22:21:17.781Z,100407.66
2018-08-06T22:23:47.579Z,100410.35
2018-08-06T22:26:17.902Z,100417.84
2018-08-06T22:28:47.920Z,100413.82
2018-08-06T22:31:18.378Z,100408.77
2018-08-06T22:33:48.124Z,100406.73
2018-08-06T22:36:17.814Z,100404.79
2018-08-06T22:38:47.659Z,100403.01
2018-08-06T22:41:17.349Z,100405.23
2018-08-06T22:43:47.817Z,100402.93
2018-08-06T22:46:17.726Z,100403.61
2018-08-06T22:48:47.473Z,100400.44
2018-08-06T22:51:17.343Z,100405.61
2018-08-06T22:53:47.600Z,100397.11
2018-08-06T22:56:18.270Z,100399.60
2018-08-06T22:58:48.393Z,100398.63
2018-08-06T23:01:18.289Z,100401.67
2018-08-06T23:03:48.447Z,100405.52
2018-08-06T23:06:18.437Z,100399.34
2018-08-06T23:08:48.238Z,100396.81
2018-08-06T23:11:18.134Z,100391.66
2018-08-06T23:13:48.244Z,100388.48
2018-08-06T23:16:18.081Z,100392.16
2018-08-06T23:18:48.033Z,100393.34
2018-08-06T23:21:17.702Z,100383.84
2018-08-06T23:23:47.815Z,100379.02
2018-08-06T23:26:17.631Z,100379.34
2018-08-06T23:28:47.375Z,100375.00
2018-08-06T23:31:17.753Z,100377.19
2018-08-06T23:33:47.591Z,100370.48
2018-08-06T23:36:17.837Z,100373.66
2018-08-06T23:38:47.515Z,100368.95
2018-08-06T23:41:17.420Z,100371.67
2018-08-06T23:43:47.269Z,100373.48
2018-08-06T23:46:17.458Z,100366.98
2018-08-06T23:48:48.209Z,100359.31
2018-08-06T23:51:17.928Z,100353.97
2018-08-06T23:53:47.990Z,100345.59
2018-08-06T23:56:17.606Z,100362.30
2018-08-06T23:58:47.347Z,100354.29
